Wetterdaten: Woche 30.01.17 - 05.02.17 (KW5)
Datum Zeit Temp. Aussen Temp. o. S. +5cm Feuchte Auss BlattFeu 1 Luftdruck Regen Sonnenschein Regendauer Solar Windben Empfang
30.01.2017 00:00 2,7 C 2,9 C 1,0 C 91 % 2 lf 1015,6 hPa 0,0 l/m 0,00 h 0,47 h 5 W/m 10,1 km/h (2 Bft) 94,30 %
30.01.2017 01:00 2,8 C 2,6 C 1,0 C 93 % 15 lf 1014,8 hPa 1,2 l/m 0,00 h 1,00 h 5 W/m 10,0 km/h (2 Bft) 96,73 %
30.01.2017 02:00 3,2 C 3,1 C 1,5 C 95 % 15 lf 1013,6 hPa 0,6 l/m 0,00 h 1,00 h 5 W/m 15,9 km/h (3 Bft) 94,21 %
30.01.2017 03:00 3,4 C 3,3 C 1,8 C 96 % 15 lf 1012,0 hPa 0,0 l/m 0,00 h 0,53 h 5 W/m 20,8 km/h (4 Bft) 94,41 %
30.01.2017 04:00 3,6 C 3,4 C 2,2 C 97 % 15 lf 1011,1 hPa 0,2 l/m 0,00 h 0,80 h 5 W/m 20,1 km/h (4 Bft) 98,30 %
30.01.2017 05:00 3,7 C 3,9 C 2,2 C 97 % 15 lf 1010,3 hPa 1,6 l/m 0,00 h 1,00 h 5 W/m 16,7 km/h (3 Bft) 95,90 %
30.01.2017 06:00 3,7 C 3,9 C 2,2 C 97 % 15 lf 1009,4 hPa 1,0 l/m 0,00 h 0,93 h 5 W/m 17,5 km/h (3 Bft) 95,50 %
30.01.2017 07:00 3,8 C 3,9 C 2,5 C 98 % 15 lf 1009,0 hPa 1,0 l/m 0,00 h 1,00 h 5 W/m 12,6 km/h (3 Bft) 95,93 %
30.01.2017 08:00 4,0 C 4,2 C 2,8 C 98 % 15 lf 1009,0 hPa 0,4 l/m 0,00 h 0,40 h 7 W/m 8,9 km/h (2 Bft) 96,50 %
30.01.2017 09:00 5,0 C 5,5 C 3,9 C 98 % 15 lf 1008,7 hPa 0,0 l/m 0,00 h 0,07 h 18 W/m 14,8 km/h (3 Bft) 96,17 %
30.01.2017 10:00 6,1 C 6,5 C 4,9 C 99 % 15 lf 1008,6 hPa 0,0 l/m 0,00 h 0,00 h 50 W/m 20,3 km/h (4 Bft) 96,85 %
30.01.2017 11:00 6,5 C 6,7 C 5,6 C 99 % 15 lf 1008,5 hPa 0,0 l/m 0,00 h 0,53 h 66 W/m 20,1 km/h (4 Bft) 93,71 %
30.01.2017 12:00 6,7 C 6,8 C 5,6 C 99 % 15 lf 1008,3 hPa 0,2 l/m 0,00 h 0,27 h 57 W/m 23,1 km/h (4 Bft) 97,52 %
30.01.2017 13:00 6,8 C 7,1 C 5,6 C 99 % 15 lf 1008,0 hPa 0,0 l/m 0,00 h 0,43 h 59 W/m 24,4 km/h (4 Bft) 97,28 %
30.01.2017 14:00 6,9 C 7,2 C 5,6 C 99 % 15 lf 1007,8 hPa 0,0 l/m 0,00 h 0,40 h 37 W/m 21,2 km/h (4 Bft) 93,17 %
30.01.2017 15:00 7,0 C 7,1 C 5,6 C 99 % 15 lf 1008,1 hPa 0,2 l/m 0,00 h 0,40 h 34 W/m 17,7 km/h (3 Bft) 96,44 %
30.01.2017 16:00 6,6 C 6,7 C 5,1 C 99 % 15 lf 1008,8 hPa 0,2 l/m 0,00 h 0,03 h 18 W/m 15,5 km/h (3 Bft) 97,25 %
30.01.2017 17:00 6,2 C 6,1 C 4,5 C 99 % 15 lf 1009,5 hPa 0,0 l/m 0,00 h 0,00 h 5 W/m 11,8 km/h (2 Bft) 95,49 %
30.01.2017 18:00 5,9 C 5,8 C 4,4 C 98 % 15 lf 1010,0 hPa 0,2 l/m 0,00 h 0,43 h 5 W/m 14,3 km/h (3 Bft) 96,25 %
30.01.2017 19:00 5,6 C 5,6 C 4,1 C 98 % 15 lf 1010,7 hPa 0,0 l/m 0,00 h 0,17 h 5 W/m 17,7 km/h (3 Bft) 95,11 %
30.01.2017 20:00 5,0 C 4,8 C 3,4 C 98 % 15 lf 1011,3 hPa 0,0 l/m 0,00 h 0,47 h 5 W/m 17,9 km/h (3 Bft) 95,17 %
30.01.2017 21:00 3,9 C 3,8 C 2,4 C 98 % 15 lf 1012,0 hPa 0,0 l/m 0,00 h 0,37 h 5 W/m 17,7 km/h (3 Bft) 98,31 %
30.01.2017 22:00 3,4 C 3,3 C 1,9 C 98 % 15 lf 1012,4 hPa 0,0 l/m 0,00 h 0,00 h 5 W/m 14,0 km/h (3 Bft) 94,53 %
30.01.2017 23:00 2,9 C 2,9 C 1,7 C 98 % 15 lf 1012,7 hPa 0,0 l/m 0,00 h 0,00 h 5 W/m 15,4 km/h (3 Bft) 95,42 %
31.01.2017 00:00 2,5 C 2,3 C 1,2 C 98 % 15 lf 1013,1 hPa 0,0 l/m 0,00 h 0,00 h 5 W/m 12,1 km/h (2 Bft) 96,83 %
31.01.2017 01:00 2,2 C 2,2 C 1,1 C 98 % 15 lf 1013,4 hPa 0,0 l/m 0,00 h 0,00 h 5 W/m 6,8 km/h (2 Bft) 96,23 %
31.01.2017 02:00 2,2 C 2,2 C 1,1 C 98 % 15 lf 1013,6 hPa 0,0 l/m 0,00 h 0,00 h 5 W/m 7,6 km/h (2 Bft) 96,49 %
31.01.2017 03:00 2,2 C 2,2 C 1,1 C 97 % 15 lf 1013,7 hPa 0,0 l/m 0,00 h 0,00 h 5 W/m 6,5 km/h (2 Bft) 94,25 %
31.01.2017 04:00 2,1 C 2,2 C 1,0 C 97 % 15 lf 1013,7 hPa 0,0 l/m 0,00 h 0,00 h 5 W/m 6,5 km/h (2 Bft) 97,28 %
31.01.2017 05:00 2,0 C 2,2 C 0,6 C 97 % 14 lf 1014,0 hPa 0,0 l/m 0,00 h 0,00 h 5 W/m 3,0 km/h (1 Bft) 95,01 %
31.01.2017 06:00 1,9 C 2,2 C 0,6 C 97 % 11 lf 1014,1 hPa 0,0 l/m 0,00 h 0,00 h 5 W/m 5,6 km/h (1 Bft) 97,56 %
31.01.2017 07:00 1,9 C 2,2 C 0,6 C 97 % 3 lf 1014,3 hPa 0,0 l/m 0,00 h 0,00 h 5 W/m 3,4 km/h (1 Bft) 96,18 %
31.01.2017 08:00 1,9 C 2,2 C 0,8 C 97 % 1 lf 1014,7 hPa 0,0 l/m 0,00 h 0,00 h 10 W/m 4,5 km/h (1 Bft) 93,38 %
31.01.2017 09:00 2,0 C 2,5 C 1,2 C 97 % 1 lf 1015,0 hPa 0,0 l/m 0,00 h 0,00 h 24 W/m 3,1 km/h (1 Bft) 97,44 %
31.01.2017 10:00 2,3 C 3,0 C 1,9 C 97 % 0 lf 1015,4 hPa 0,0 l/m 0,00 h 0,00 h 44 W/m 0,8 km/h (0 Bft) 97,65 %
31.01.2017 11:00 2,7 C 3,7 C 2,7 C 98 % 0 lf 1015,9 hPa 0,0 l/m 0,00 h 0,00 h 72 W/m 4,3 km/h (1 Bft) 93,96 %
31.01.2017 12:00 3,1 C 4,4 C 2,9 C 98 % 0 lf 1016,0 hPa 0,0 l/m 0,00 h 0,00 h 69 W/m 6,3 km/h (2 Bft) 95,31 %
31.01.2017 13:00 3,3 C 4,8 C 3,3 C 97 % 0 lf 1016,1 hPa 0,0 l/m 0,00 h 0,00 h 78 W/m 4,2 km/h (1 Bft) 97,79 %
31.01.2017 14:00 3,5 C 5,0 C 3,6 C 96 % 0 lf 1016,1 hPa 0,0 l/m 0,00 h 0,00 h 87 W/m 4,7 km/h (1 Bft) 94,52 %
31.01.2017 15:00 3,7 C 4,4 C 3,2 C 95 % 0 lf 1016,2 hPa 0,0 l/m 0,00 h 0,00 h 48 W/m 6,7 km/h (2 Bft) 97,78 %
31.01.2017 16:00 3,6 C 4,2 C 2,7 C 93 % 0 lf 1016,4 hPa 0,0 l/m 0,00 h 0,00 h 32 W/m 4,9 km/h (1 Bft) 93,66 %
31.01.2017 17:00 3,4 C 3,7 C 2,0 C 92 % 0 lf 1016,7 hPa 0,0 l/m 0,00 h 0,00 h 6 W/m 4,5 km/h (1 Bft) 95,51 %
31.01.2017 18:00 3,3 C 3,3 C 1,7 C 92 % 0 lf 1017,3 hPa 0,0 l/m 0,00 h 0,00 h 5 W/m 4,8 km/h (1 Bft) 97,08 %
31.01.2017 19:00 3,1 C 3,3 C 1,7 C 93 % 0 lf 1017,2 hPa 0,0 l/m 0,00 h 0,00 h 5 W/m 7,1 km/h (2 Bft) 96,65 %
31.01.2017 20:00 2,9 C 3,0 C 1,5 C 94 % 0 lf 1017,1 hPa 0,0 l/m 0,00 h 0,00 h 5 W/m 7,7 km/h (2 Bft) 94,17 %
31.01.2017 21:00 2,7 C 2,8 C 1,2 C 94 % 0 lf 1017,1 hPa 0,0 l/m 0,00 h 0,00 h 5 W/m 6,2 km/h (2 Bft) 94,66 %
31.01.2017 22:00 2,4 C 2,8 C 1,3 C 93 % 0 lf 1017,1 hPa 0,0 l/m 0,00 h 0,00 h 5 W/m 13,3 km/h (3 Bft) 97,73 %
31.01.2017 23:00 2,3 C 2,4 C 0,3 C 92 % 0 lf 1017,0 hPa 0,0 l/m 0,00 h 0,00 h 5 W/m 12,0 km/h (2 Bft) 95,93 %
01.02.2017 00:00 1,7 C 1,5 C -0,8 C 91 % 0 lf 1016,9 hPa 0,0 l/m 0,00 h 0,00 h 5 W/m 11,4 km/h (2 Bft) 80,55 %
01.02.2017 01:00 1,4 C 1,9 C 0,1 C 92 % 0 lf 1016,7 hPa 0,0 l/m 0,00 h 0,00 h 5 W/m 20,7 km/h (4 Bft) 95,58 %
01.02.2017 02:00 1,8 C 2,2 C 0,6 C 91 % 0 lf 1016,6 hPa 0,0 l/m 0,00 h 0,00 h 5 W/m 20,6 km/h (4 Bft) 95,58 %
01.02.2017 03:00 1,7 C 1,9 C 0,1 C 90 % 0 lf 1016,3 hPa 0,0 l/m 0,00 h 0,00 h 5 W/m 20,9 km/h (4 Bft) 95,16 %
01.02.2017 04:00 1,3 C 1,4 C -0,6 C 91 % 0 lf 1016,2 hPa 0,0 l/m 0,00 h 0,00 h 5 W/m 16,1 km/h (3 Bft) 79,34 %
01.02.2017 05:00 1,1 C 1,1 C -0,6 C 91 % 0 lf 1015,9 hPa 0,0 l/m 0,00 h 0,00 h 5 W/m 20,7 km/h (4 Bft) 92,79 %
01.02.2017 06:00 1,1 C 1,1 C -0,6 C 91 % 0 lf 1015,7 hPa 0,0 l/m 0,00 h 0,00 h 5 W/m 20,1 km/h (4 Bft) 98,28 %
01.02.2017 07:00 0,9 C 1,1 C -1,0 C 91 % 0 lf 1015,7 hPa 0,0 l/m 0,00 h 0,00 h 5 W/m 18,9 km/h (3 Bft) 97,85 %
01.02.2017 08:00 1,0 C 1,5 C -0,5 C 91 % 0 lf 1015,7 hPa 0,0 l/m 0,60 h 0,00 h 31 W/m 23,8 km/h (4 Bft) 94,95 %
01.02.2017 09:00 1,4 C 2,4 C 0,2 C 91 % 0 lf 1015,8 hPa 0,0 l/m 0,97 h 0,00 h 106 W/m 28,9 km/h (5 Bft) 95,08 %
01.02.2017 10:00 2,4 C 5,2 C 1,1 C 88 % 0 lf 1015,5 hPa 0,0 l/m 0,97 h 0,00 h 233 W/m 29,5 km/h (5 Bft) 97,39 %
01.02.2017 11:00 3,4 C 7,3 C 1,9 C 84 % 0 lf 1015,1 hPa 0,0 l/m 0,97 h 0,00 h 300 W/m 29,8 km/h (5 Bft) 93,61 %
01.02.2017 12:00 4,3 C 7,6 C 3,3 C 82 % 0 lf 1014,5 hPa 0,0 l/m 0,97 h 0,00 h 335 W/m 31,3 km/h (5 Bft) 97,62 %
01.02.2017 13:00 4,2 C 5,4 C 4,0 C 82 % 0 lf 1013,8 hPa 0,0 l/m 0,67 h 0,00 h 188 W/m 28,5 km/h (4 Bft) 97,22 %
01.02.2017 14:00 4,2 C 5,0 C 3,9 C 82 % 0 lf 1013,0 hPa 0,0 l/m 0,00 h 0,00 h 127 W/m 24,5 km/h (4 Bft) 93,12 %
01.02.2017 15:00 4,5 C 5,2 C 3,9 C 83 % 0 lf 1012,4 hPa 0,0 l/m 0,00 h 0,00 h 83 W/m 22,4 km/h (4 Bft) 97,16 %
01.02.2017 16:00 4,8 C 5,4 C 3,8 C 83 % 0 lf 1012,0 hPa 0,0 l/m 0,00 h 0,00 h 34 W/m 27,5 km/h (4 Bft) 95,70 %
01.02.2017 17:00 4,6 C 4,8 C 3,2 C 84 % 0 lf 1011,6 hPa 0,0 l/m 0,00 h 0,00 h 8 W/m 30,7 km/h (5 Bft) 95,73 %
01.02.2017 18:00 4,2 C 4,4 C 2,8 C 86 % 0 lf 1011,4 hPa 0,0 l/m 0,00 h 0,00 h 5 W/m 30,6 km/h (5 Bft) 96,16 %
01.02.2017 19:00 4,2 C 4,4 C 2,8 C 86 % 0 lf 1011,0 hPa 0,0 l/m 0,00 h 0,00 h 5 W/m 30,1 km/h (5 Bft) 94,74 %
01.02.2017 20:00 4,2 C 4,3 C 2,6 C 88 % 0 lf 1011,1 hPa 0,0 l/m 0,00 h 0,20 h 5 W/m 25,9 km/h (4 Bft) 96,58 %
01.02.2017 21:00 4,3 C 4,4 C 2,8 C 90 % 0 lf 1010,8 hPa 0,0 l/m 0,00 h 0,00 h 5 W/m 23,1 km/h (4 Bft) 97,55 %
01.02.2017 22:00 4,4 C 4,6 C 2,9 C 91 % 0 lf 1010,5 hPa 0,0 l/m 0,00 h 0,20 h 5 W/m 22,9 km/h (4 Bft) 94,25 %
01.02.2017 23:00 4,6 C 5,0 C 3,3 C 92 % 0 lf 1010,2 hPa 0,0 l/m 0,00 h 0,17 h 5 W/m 22,0 km/h (4 Bft) 94,73 %
02.02.2017 00:00 4,7 C 4,7 C 3,2 C 93 % 0 lf 1010,1 hPa 0,0 l/m 0,00 h 0,93 h 5 W/m 22,8 km/h (4 Bft) 98,22 %
02.02.2017 01:00 4,7 C 4,9 C 3,3 C 95 % 0 lf 1009,8 hPa 0,0 l/m 0,00 h 0,63 h 5 W/m 21,3 km/h (4 Bft) 94,94 %
02.02.2017 02:00 4,8 C 5,0 C 3,6 C 96 % 0 lf 1009,7 hPa 0,0 l/m 0,00 h 0,13 h 5 W/m 20,9 km/h (4 Bft) 96,76 %
02.02.2017 03:00 4,7 C 4,7 C 2,8 C 96 % 1 lf 1009,3 hPa 0,0 l/m 0,00 h 0,00 h 5 W/m 19,7 km/h (3 Bft) 94,59 %
02.02.2017 04:00 4,0 C 4,0 C 2,2 C 96 % 2 lf 1009,1 hPa 0,0 l/m 0,00 h 0,07 h 5 W/m 19,3 km/h (3 Bft) 96,56 %
02.02.2017 05:00 3,8 C 3,9 C 2,2 C 97 % 2 lf 1008,6 hPa 0,0 l/m 0,00 h 0,03 h 5 W/m 20,1 km/h (4 Bft) 96,16 %
02.02.2017 06:00 3,9 C 4,0 C 2,2 C 97 % 2 lf 1008,5 hPa 0,0 l/m 0,00 h 0,03 h 5 W/m 17,8 km/h (3 Bft) 96,78 %
02.02.2017 07:00 4,0 C 4,4 C 2,3 C 98 % 2 lf 1008,4 hPa 0,0 l/m 0,00 h 0,03 h 5 W/m 18,2 km/h (3 Bft) 93,73 %
02.02.2017 08:00 4,1 C 4,5 C 2,6 C 98 % 1 lf 1008,3 hPa 0,0 l/m 0,63 h 0,00 h 33 W/m 19,6 km/h (3 Bft) 95,56 %
02.02.2017 09:00 4,4 C 5,3 C 3,0 C 98 % 1 lf 1008,0 hPa 0,0 l/m 0,50 h 0,00 h 86 W/m 20,8 km/h (4 Bft) 96,60 %
02.02.2017 10:00 5,8 C 9,1 C 4,9 C 98 % 0 lf 1007,7 hPa 0,0 l/m 0,93 h 0,00 h 206 W/m 24,1 km/h (4 Bft) 96,20 %
02.02.2017 11:00 7,6 C 10,9 C 6,9 C 95 % 0 lf 1007,5 hPa 0,0 l/m 0,87 h 0,00 h 294 W/m 25,7 km/h (4 Bft) 95,44 %
02.02.2017 12:00 9,1 C 12,9 C 8,7 C 91 % 0 lf 1006,5 hPa 0,0 l/m 1,00 h 0,00 h 362 W/m 25,5 km/h (4 Bft) 97,36 %
02.02.2017 13:00 10,4 C 12,7 C 10,0 C 87 % 0 lf 1005,5 hPa 0,0 l/m 1,00 h 0,00 h 264 W/m 25,4 km/h (4 Bft) 95,16 %
02.02.2017 14:00 10,4 C 12,3 C 9,7 C 86 % 0 lf 1004,8 hPa 0,0 l/m 0,75 h 0,00 h 199 W/m 28,0 km/h (4 Bft) 97,26 %
02.02.2017 15:00 10,2 C 11,2 C 9,2 C 86 % 0 lf 1004,3 hPa 0,0 l/m 0,50 h 0,00 h 123 W/m 29,6 km/h (5 Bft) 95,57 %
02.02.2017 16:00 9,5 C 10,0 C 8,0 C 87 % 0 lf 1004,1 hPa 0,0 l/m 0,93 h 0,00 h 62 W/m 22,9 km/h (4 Bft) 94,10 %
02.02.2017 17:00 9,0 C 9,1 C 7,0 C 88 % 0 lf 1004,3 hPa 0,0 l/m 0,17 h 0,00 h 11 W/m 23,6 km/h (4 Bft) 97,79 %
02.02.2017 18:00 8,5 C 8,4 C 6,6 C 89 % 0 lf 1004,3 hPa 0,0 l/m 0,00 h 0,00 h 5 W/m 21,7 km/h (4 Bft) 94,53 %
02.02.2017 19:00 8,1 C 8,2 C 6,1 C 90 % 0 lf 1004,3 hPa 0,0 l/m 0,00 h 0,00 h 5 W/m 18,1 km/h (3 Bft) 97,58 %
02.02.2017 20:00 7,6 C 7,5 C 5,3 C 90 % 0 lf 1003,9 hPa 0,0 l/m 0,00 h 0,00 h 5 W/m 15,7 km/h (3 Bft) 93,94 %
02.02.2017 21:00 7,1 C 7,2 C 5,1 C 92 % 0 lf 1003,5 hPa 0,0 l/m 0,00 h 0,00 h 5 W/m 18,0 km/h (3 Bft) 96,59 %
02.02.2017 22:00 7,2 C 7,7 C 5,6 C 92 % 0 lf 1003,2 hPa 0,0 l/m 0,00 h 0,00 h 5 W/m 15,3 km/h (3 Bft) 96,72 %
02.02.2017 23:00 7,2 C 7,3 C 5,2 C 92 % 0 lf 1002,8 hPa 0,0 l/m 0,00 h 0,00 h 5 W/m 17,5 km/h (3 Bft) 96,08 %
03.02.2017 00:00 7,2 C 7,3 C 5,5 C 92 % 0 lf 1002,7 hPa 0,0 l/m 0,00 h 0,00 h 5 W/m 15,6 km/h (3 Bft) 91,26 %
03.02.2017 01:00 7,2 C 7,2 C 5,6 C 91 % 0 lf 1002,7 hPa 0,0 l/m 0,00 h 0,03 h 5 W/m 16,8 km/h (3 Bft) 97,01 %
03.02.2017 02:00 7,0 C 6,4 C 5,1 C 92 % 1 lf 1002,8 hPa 0,4 l/m 0,00 h 0,90 h 5 W/m 15,2 km/h (3 Bft) 96,80 %
03.02.2017 03:00 6,6 C 6,1 C 5,0 C 94 % 13 lf 1002,6 hPa 1,2 l/m 0,00 h 0,90 h 5 W/m 12,1 km/h (2 Bft) 95,94 %
03.02.2017 04:00 6,6 C 6,6 C 5,0 C 96 % 7 lf 1002,3 hPa 0,0 l/m 0,00 h 0,17 h 5 W/m 13,2 km/h (3 Bft) 94,61 %
03.02.2017 05:00 6,5 C 6,5 C 4,8 C 97 % 1 lf 1002,2 hPa 0,0 l/m 0,00 h 0,00 h 5 W/m 13,9 km/h (3 Bft) 96,80 %
03.02.2017 06:00 6,4 C 6,4 C 4,9 C 97 % 1 lf 1002,3 hPa 0,0 l/m 0,00 h 0,00 h 5 W/m 9,1 km/h (2 Bft) 97,15 %
03.02.2017 07:00 6,6 C 6,7 C 5,0 C 98 % 1 lf 1002,6 hPa 0,0 l/m 0,00 h 0,30 h 5 W/m 10,3 km/h (2 Bft) 94,88 %
03.02.2017 08:00 6,8 C 6,8 C 5,4 C 98 % 9 lf 1003,1 hPa 0,4 l/m 0,00 h 0,93 h 9 W/m 7,6 km/h (2 Bft) 96,65 %
03.02.2017 09:00 7,1 C 7,5 C 5,9 C 98 % 14 lf 1003,4 hPa 0,2 l/m 0,00 h 0,13 h 42 W/m 6,7 km/h (2 Bft) 94,59 %
03.02.2017 10:00 7,7 C 8,3 C 7,1 C 99 % 3 lf 1003,8 hPa 0,0 l/m 0,00 h 0,10 h 78 W/m 5,2 km/h (1 Bft) 96,37 %
03.02.2017 11:00 8,6 C 9,5 C 8,8 C 99 % 0 lf 1004,0 hPa 0,0 l/m 0,00 h 0,03 h 117 W/m 7,8 km/h (2 Bft) 97,72 %
03.02.2017 12:00 9,3 C 11,1 C 9,7 C 99 % 0 lf 1003,4 hPa 0,0 l/m 0,67 h 0,00 h 232 W/m 9,6 km/h (2 Bft) 92,95 %
03.02.2017 13:00 10,8 C 15,5 C 10,2 C 95 % 0 lf 1002,9 hPa 0,0 l/m 0,67 h 0,00 h 279 W/m 13,5 km/h (3 Bft) 96,23 %
03.02.2017 14:00 11,1 C 10,9 C 9,0 C 85 % 4 lf 1002,4 hPa 0,0 l/m 0,00 h 0,30 h 47 W/m 11,9 km/h (2 Bft) 98,43 %
03.02.2017 15:00 10,3 C 10,6 C 8,2 C 84 % 2 lf 1002,3 hPa 0,0 l/m 0,00 h 0,03 h 53 W/m 13,7 km/h (3 Bft) 91,95 %
03.02.2017 16:00 10,2 C 10,7 C 8,8 C 82 % 0 lf 1001,9 hPa 0,0 l/m 0,07 h 0,00 h 40 W/m 12,4 km/h (3 Bft) 97,15 %
03.02.2017 17:00 9,8 C 9,6 C 7,0 C 80 % 0 lf 1001,6 hPa 0,0 l/m 0,00 h 0,00 h 10 W/m 10,5 km/h (2 Bft) 97,58 %
03.02.2017 18:00 8,6 C 8,0 C 4,8 C 83 % 0 lf 1001,1 hPa 0,0 l/m 0,00 h 0,00 h 0 W/m 12,0 km/h (2 Bft) 94,87 %
03.02.2017 19:00 7,6 C 7,6 C 4,9 C 84 % 0 lf 1001,0 hPa 0,0 l/m 0,00 h 0,00 h 0 W/m 16,5 km/h (3 Bft) 95,37 %
03.02.2017 20:00 6,8 C 6,7 C 4,1 C 86 % 0 lf 1000,7 hPa 0,0 l/m 0,00 h 0,00 h 0 W/m 15,3 km/h (3 Bft) 95,66 %
03.02.2017 21:00 6,4 C 6,7 C 4,2 C 88 % 0 lf 1000,2 hPa 0,0 l/m 0,00 h 0,00 h 0 W/m 18,4 km/h (3 Bft) 94,95 %
03.02.2017 22:00 6,3 C 6,3 C 4,2 C 89 % 0 lf 999,5 hPa 0,0 l/m 0,00 h 0,00 h 0 W/m 18,5 km/h (3 Bft) 97,44 %
03.02.2017 23:00 6,4 C 6,8 C 4,7 C 89 % 0 lf 998,7 hPa 0,0 l/m 0,00 h 0,00 h 0 W/m 21,4 km/h (4 Bft) 94,38 %
04.02.2017 00:00 6,9 C 7,2 C 5,5 C 89 % 0 lf 998,1 hPa 0,0 l/m 0,00 h 0,00 h 0 W/m 20,9 km/h (4 Bft) 91,27 %
04.02.2017 01:00 7,3 C 7,8 C 5,8 C 89 % 0 lf 997,9 hPa 0,0 l/m 0,00 h 0,00 h 0 W/m 19,9 km/h (4 Bft) 96,65 %
04.02.2017 02:00 7,5 C 7,2 C 5,5 C 89 % 8 lf 998,5 hPa 0,4 l/m 0,00 h 0,53 h 0 W/m 24,0 km/h (4 Bft) 97,01 %
04.02.2017 03:00 6,9 C 6,4 C 4,9 C 94 % 15 lf 999,4 hPa 1,0 l/m 0,00 h 0,90 h 0 W/m 30,1 km/h (5 Bft) 94,45 %
04.02.2017 04:00 6,2 C 5,5 C 3,7 C 94 % 15 lf 1000,0 hPa 0,0 l/m 0,00 h 0,25 h 0 W/m 18,4 km/h (3 Bft) 95,49 %
04.02.2017 05:00 5,4 C 4,4 C 2,0 C 93 % 15 lf 1000,3 hPa 0,0 l/m 0,00 h 0,00 h 0 W/m 9,3 km/h (2 Bft) 98,65 %
04.02.2017 06:00 4,8 C 4,2 C 1,9 C 94 % 15 lf 1000,4 hPa 0,0 l/m 0,00 h 0,20 h 0 W/m 12,1 km/h (2 Bft) 95,16 %
04.02.2017 07:00 4,1 C 3,5 C 1,0 C 93 % 15 lf 1000,4 hPa 0,0 l/m 0,00 h 0,00 h 25 W/m 9,1 km/h (2 Bft) 96,08 %
04.02.2017 08:00 3,4 C 3,1 C 0,8 C 94 % 15 lf 1000,3 hPa 0,0 l/m 0,67 h 0,00 h 53 W/m 9,7 km/h (2 Bft) 95,59 %
04.02.2017 09:00 3,9 C 4,5 C 2,6 C 95 % 7 lf 999,4 hPa 0,0 l/m 1,02 h 0,27 h 112 W/m 17,8 km/h (3 Bft) 95,18 %
04.02.2017 10:00 4,8 C 5,4 C 4,0 C 94 % 0 lf 998,7 hPa 0,0 l/m 0,45 h 0,00 h 141 W/m 17,1 km/h (3 Bft) 98,28 %
04.02.2017 11:00 5,7 C 6,7 C 5,5 C 93 % 0 lf 998,1 hPa 0,0 l/m 0,28 h 0,00 h 172 W/m 21,6 km/h (4 Bft) 97,45 %
04.02.2017 12:00 6,9 C 8,4 C 6,9 C 89 % 0 lf 997,9 hPa 0,0 l/m 0,53 h 0,00 h 190 W/m 22,0 km/h (4 Bft) 92,70 %
04.02.2017 13:00 7,4 C 7,9 C 6,4 C 86 % 0 lf 997,5 hPa 0,0 l/m 0,00 h 0,53 h 130 W/m 22,7 km/h (4 Bft) 97,39 %
04.02.2017 14:00 7,4 C 6,9 C 5,5 C 87 % 2 lf 997,0 hPa 0,2 l/m 0,00 h 1,00 h 98 W/m 18,4 km/h (3 Bft) 96,78 %
04.02.2017 15:00 7,0 C 5,9 C 4,6 C 90 % 13 lf 996,7 hPa 1,0 l/m 0,00 h 1,00 h 63 W/m 20,9 km/h (4 Bft) 96,14 %
04.02.2017 16:00 6,3 C 5,6 C 4,4 C 93 % 15 lf 996,8 hPa 0,8 l/m 0,30 h 1,00 h 52 W/m 18,2 km/h (3 Bft) 95,19 %
04.02.2017 17:00 6,0 C 5,6 C 4,4 C 95 % 15 lf 997,2 hPa 0,8 l/m 0,33 h 1,00 h 36 W/m 16,2 km/h (3 Bft) 95,28 %
04.02.2017 18:00 5,8 C 5,6 C 3,9 C 95 % 15 lf 997,6 hPa 0,8 l/m 0,00 h 1,00 h 0 W/m 11,6 km/h (2 Bft) 97,24 %
04.02.2017 19:00 5,6 C 5,6 C 3,9 C 96 % 15 lf 997,8 hPa 0,4 l/m 0,00 h 1,00 h 0 W/m 10,7 km/h (2 Bft) 95,58 %
04.02.2017 20:00 5,5 C 5,6 C 3,9 C 97 % 15 lf 998,1 hPa 0,2 l/m 0,00 h 0,73 h 0 W/m 8,3 km/h (2 Bft) 96,22 %
04.02.2017 21:00 5,4 C 5,2 C 3,9 C 97 % 15 lf 998,4 hPa 0,0 l/m 0,00 h 0,00 h 0 W/m 8,2 km/h (2 Bft) 94,50 %
04.02.2017 22:00 5,3 C 5,6 C 3,9 C 97 % 15 lf 998,8 hPa 0,4 l/m 0,00 h 0,67 h 0 W/m 9,7 km/h (2 Bft) 96,49 %
04.02.2017 23:00 5,3 C 5,1 C 3,9 C 97 % 15 lf 999,6 hPa 0,2 l/m 0,00 h 0,60 h 0 W/m 17,3 km/h (3 Bft) 97,98 %
05.02.2017 00:00 5,0 C 5,0 C 3,4 C 98 % 15 lf 1000,1 hPa 0,2 l/m 0,00 h 0,23 h 0 W/m 16,8 km/h (3 Bft) 93,51 %
05.02.2017 01:00 4,9 C 5,0 C 3,5 C 98 % 15 lf 1000,5 hPa 0,0 l/m 0,00 h 0,03 h 0 W/m 19,9 km/h (4 Bft) 94,86 %
05.02.2017 02:00 4,9 C 5,0 C 3,9 C 97 % 15 lf 1000,8 hPa 0,0 l/m 0,00 h 0,03 h 0 W/m 19,0 km/h (3 Bft) 97,61 %
05.02.2017 03:00 4,9 C 5,0 C 3,7 C 97 % 14 lf 1001,0 hPa 0,0 l/m 0,00 h 0,00 h 0 W/m 15,1 km/h (3 Bft) 95,47 %
05.02.2017 04:00 4,7 C 4,5 C 3,2 C 97 % 7 lf 1001,2 hPa 0,0 l/m 0,00 h 0,00 h 0 W/m 9,4 km/h (2 Bft) 95,27 %
05.02.2017 05:00 4,5 C 4,4 C 2,7 C 97 % 2 lf 1001,3 hPa 0,0 l/m 0,00 h 0,00 h 0 W/m 8,0 km/h (2 Bft) 96,28 %
05.02.2017 06:00 4,1 C 3,2 C 0,7 C 97 % 6 lf 1000,9 hPa 0,0 l/m 0,00 h 0,00 h 1 W/m 3,4 km/h (1 Bft) 94,81 %
05.02.2017 07:00 3,0 C 1,8 C -1,0 C 96 % 15 lf 1000,9 hPa 0,0 l/m 0,00 h 0,00 h 0 W/m 0,6 km/h (0 Bft) 97,63 %
05.02.2017 08:00 1,9 C 1,6 C -1,2 C 96 % 15 lf 1001,2 hPa 0,0 l/m 0,67 h 0,00 h 33 W/m 3,9 km/h (1 Bft) 96,32 %
05.02.2017 09:00 2,2 C 3,2 C 0,5 C 96 % 15 lf 1001,0 hPa 0,0 l/m 0,77 h 0,00 h 122 W/m 5,5 km/h (1 Bft) 95,26 %
05.02.2017 10:00 3,6 C 7,4 C 2,0 C 97 % 15 lf 1001,1 hPa 0,0 l/m 0,93 h 0,03 h 188 W/m 12,6 km/h (3 Bft) 95,95 %
05.02.2017 11:00 5,0 C 10,3 C 4,2 C 96 % 0 lf 1000,9 hPa 0,0 l/m 1,00 h 0,00 h 289 W/m 16,3 km/h (3 Bft) 97,00 %
05.02.2017 12:00 7,2 C 11,7 C 6,1 C 87 % 0 lf 1000,8 hPa 0,0 l/m 1,00 h 0,00 h 338 W/m 20,6 km/h (4 Bft) 94,57 %
05.02.2017 13:00 8,2 C 12,4 C 6,9 C 81 % 0 lf 1000,8 hPa 0,0 l/m 1,00 h 0,00 h 331 W/m 21,3 km/h (4 Bft) 96,08 %
05.02.2017 14:00 8,6 C 10,0 C 8,0 C 78 % 0 lf 1001,0 hPa 0,0 l/m 0,53 h 0,00 h 175 W/m 18,7 km/h (3 Bft) 96,72 %
05.02.2017 15:00 8,1 C 8,7 C 7,2 C 79 % 0 lf 1001,2 hPa 0,0 l/m 0,00 h 0,00 h 90 W/m 16,4 km/h (3 Bft) 94,58 %
05.02.2017 16:00 7,9 C 8,2 C 6,5 C 81 % 0 lf 1001,7 hPa 0,0 l/m 0,00 h 0,00 h 51 W/m 13,9 km/h (3 Bft) 97,58 %
05.02.2017 17:00 7,4 C 7,4 C 4,9 C 82 % 0 lf 1002,1 hPa 0,0 l/m 0,00 h 0,00 h 14 W/m 10,5 km/h (2 Bft) 95,94 %
05.02.2017 18:00 6,8 C 6,4 C 3,6 C 84 % 0 lf 1002,8 hPa 0,0 l/m 0,00 h 0,00 h 0 W/m 8,9 km/h (2 Bft) 93,71 %
05.02.2017 19:00 6,3 C 6,4 C 4,0 C 86 % 0 lf 1003,7 hPa 0,0 l/m 0,00 h 0,00 h 0 W/m 9,8 km/h (2 Bft) 97,32 %
05.02.2017 20:00 6,2 C 6,5 C 4,4 C 86 % 0 lf 1004,5 hPa 0,0 l/m 0,00 h 0,00 h 0 W/m 13,8 km/h (3 Bft) 97,14 %
05.02.2017 21:00 6,1 C 6,2 C 4,2 C 87 % 0 lf 1005,5 hPa 0,0 l/m 0,00 h 0,00 h 0 W/m 10,5 km/h (2 Bft) 93,38 %
05.02.2017 22:00 5,8 C 5,8 C 3,9 C 87 % 0 lf 1006,4 hPa 0,0 l/m 0,00 h 0,00 h 0 W/m 10,1 km/h (2 Bft) 97,22 %
05.02.2017 23:00 5,5 C 5,6 C 3,9 C 88 % 0 lf 1007,5 hPa 0,0 l/m 0,00 h 0,00 h 0 W/m 10,3 km/h (2 Bft) 94,73 %
Min-Datum _ 01.02.17 05.02.17 05.02.17 05.02.17 30.01.17 04.02.17 - - - - 31.01.17 01.02.17
_ Min-Zeit 07:40 07:54 07:50 14:36 00:00 15:14 - - - - 05:10 04:02
Minimum _ 0,8 C 0,6 C -1,7 C 77 % 0 lf 996,5 hPa - - - - 0,0 km/h (0 Bft) 0,00 %
Max-Datum _ 03.02.17 03.02.17 02.02.17 30.01.17 30.01.17 31.01.17 30.01.17 01.02.17 30.01.17 03.02.17 01.02.17 30.01.17
_ Max-Zeit 13:50 13:26 13:08 09:34 01:14 18:18 05:00 08:24 00:26 13:18 11:29 00:18
Maximum _ 11,6 C 21,1 C 10,6 C 99 % 15 lf 1017,4 hPa 1,6 l/m 0,03 h 0,03 h 496 W/m 46,0 km/h
SO (6 Bft)
100,00 %
Durchschnitt _ 5,2 C 5,6 C 3,7 C 93 % 5 lf 1007,0 hPa #15,4 l/m #23:18 h #28:05 h 58 W/m 15,7 km/h (3 Bft) 95,67 %
© 2017 W. Hausmann